Latest Weather Observations for Eucla

IDW60801

Issued at 6:13 pm WST Saturday 22 February 2020 (issued every 10 minutes, with the page automatically refreshed every 10 minutes)

About weather observations | Map of weather stations | Latest weather observations for WA | Other Formats
Station Details ID: 011003 Name: EUCLA Lat: -31.68 Lon: 128.90 Height: 93.1 m
Data from the previous 72 hours. | See also: Recent months at Eucla
Date/Time
WST
Temp
°C
App
Temp
°C
Dew
Point
°C
Rel
Hum
%
Delta-T
°C
Wind Press
QNH
hPa
Press
MSL
hPa
Rain since
9am
mm
Dir  Spd
km/h
Gust
km/h
Spd
kts
Gust
kts
22/06:00pm 19.4 17.0 15.3 77 2.4 ESE 22 37 12 20 1015.9 1015.6 0.0
22/05:30pm 19.7 17.3 15.4 76 2.5 ESE 22 35 12 19 1015.9 1015.6 0.0
22/05:00pm 20.7 17.6 15.5 72 3.1 ESE 26 39 14 21 1015.7 1015.4 0.0
22/04:30pm 21.0 17.0 15.1 69 3.5 ESE 30 43 16 23 1015.6 1015.3 0.0
22/04:00pm 21.6 17.5 15.0 66 3.9 ESE 30 41 16 22 1015.8 1015.5 0.0
22/03:30pm 22.0 18.3 15.1 65 4.1 ESE 28 39 15 21 1015.9 1015.6 0.0
22/03:00pm 21.8 18.0 14.7 64 4.2 E 28 39 15 21 1016.1 1015.8 0.0
22/02:30pm 22.2 18.0 14.6 62 4.5 ESE 30 41 16 22 1016.3 1016.0 0.0
22/02:00pm 22.0 17.3 14.4 62 4.5 ESE 32 43 17 23 1016.7 1016.4 0.0
22/01:30pm 22.6 18.0 14.7 61 4.7 ESE 32 44 17 24 1016.9 1016.6 0.0
22/01:00pm 22.2 18.2 14.1 60 4.7 ESE 28 44 15 24 1017.5 1017.2 0.0
22/12:30pm 22.1 18.1 14.2 61 4.6 ESE 28 48 15 26 1018.1 1017.8 0.0
22/12:00pm 23.2 19.4 14.7 58 5.0 ESE 28 43 15 23 1018.6 1018.3 0.0
22/11:30am 22.3 18.3 14.2 60 4.8 E 28 44 15 24 1018.8 1018.5 0.0
22/11:00am 22.7 18.7 14.0 58 5.1 E 28 43 15 23 1019.3 1018.9 0.0
22/10:30am 22.2 18.6 14.3 61 4.6 ESE 26 43 14 23 1019.7 1019.3 0.0
22/10:00am 22.2 18.4 14.6 62 4.5 E 28 43 15 23 1019.9 1019.5 0.0
22/09:30am 22.3 18.7 13.1 56 5.3 ESE 24 37 13 20 1020.3 1019.9 0.0
22/09:00am 22.0 18.2 13.6 59 4.9 ESE 26 37 14 20 1020.6 1020.2 0.0
22/08:30am 21.9 18.8 13.3 58 5.0 E 22 35 12 19 1021.1 1020.7 0.0
22/08:00am 21.2 18.4 13.1 60 4.6 E 20 30 11 16 1021.3 1020.9 0.0
22/07:30am 21.3 19.1 13.2 60 4.7 E 17 30 9 16 1021.5 1021.1 0.0
22/07:00am 20.4 19.0 13.4 64 4.0 ENE 13 22 7 12 1021.3 1020.9 0.0
22/06:30am 18.0 17.1 12.7 71 3.0 ENE 9 15 5 8 1021.0 1020.6 0.0
22/06:00am 16.2 15.1 12.0 76 2.3 NE 9 11 5 6 1020.9 1020.5 0.0
22/05:30am 14.9 13.7 11.5 80 1.8 NE 9 11 5 6 1020.8 1020.4 0.0
22/05:00am 15.4 14.2 11.6 78 2.1 NE 9 11 5 6 1020.6 1020.2 0.0
22/04:30am 16.5 15.0 11.9 74 2.5 ENE 11 15 6 8 1020.2 1019.8 0.0
22/04:00am 16.9 15.4 12.0 73 2.7 ENE 11 13 6 7 1020.1 1019.7 0.0
22/03:30am 17.0 15.9 11.9 72 2.8 ENE 9 11 5 6 1020.2 1019.8 0.0
22/03:00am 17.9 16.6 12.4 70 3.1 ENE 11 17 6 9 1020.2 1019.8 0.0
22/02:30am 18.0 15.8 12.0 68 3.3 E 15 24 8 13 1020.4 1020.0 0.0
22/02:00am 18.2 16.0 12.0 67 3.4 E 15 26 8 14 1020.5 1020.1 0.0
22/01:30am 17.9 16.1 12.1 69 3.2 E 13 20 7 11 1020.5 1020.1 0.0
22/01:00am 18.1 16.2 13.0 72 2.9 E 15 26 8 14 1020.6 1020.2 0.0
22/12:30am 18.1 16.0 13.6 75 2.6 E 17 30 9 16 1020.9 1020.5 0.0
22/12:00am 17.9 16.2 14.6 81 1.9 E 17 30 9 16 1021.0 1020.6 0.0
 
Date/Time
WST
Temp
°C
App
Temp
°C
Dew
Point
°C
Rel
Hum
%
Delta-T
°C
Wind Press
QNH
hPa
Press
MSL
hPa
Rain since
9am
mm
Dir  Spd
km/h
Gust
km/h
Spd
kts
Gust
kts
21/11:30pm 18.0 16.2 13.3 74 2.7 E 15 24 8 13 1021.3 1020.9 0.0
21/11:00pm 17.9 15.6 14.0 78 2.2 E 19 32 10 17 1021.6 1021.2 0.0
21/10:30pm 18.5 16.5 12.7 69 3.3 E 15 26 8 14 1021.8 1021.4 0.0
21/10:00pm 18.5 16.2 13.1 71 3.0 E 17 28 9 15 1021.8 1021.4 0.0
21/09:30pm 18.3 16.1 13.2 72 2.9 E 17 26 9 14 1022.1 1021.7 0.0
21/09:00pm 18.2 15.8 13.9 76 2.5 E 19 28 10 15 1022.2 1021.8 0.0
21/08:30pm 18.5 15.8 12.9 70 3.2 E 19 26 10 14 1022.2 1021.8 0.0
21/08:00pm 18.7 17.0 14.8 78 2.3 ESE 17 30 9 16 1022.2 1021.8 0.0
21/07:30pm 18.1 15.9 13.4 74 2.7 ESE 17 30 9 16 1022.0 1021.6 0.0
21/07:00pm 18.4 16.7 13.7 74 2.7 ESE 15 24 8 13 1021.9 1021.5 0.0
21/06:30pm 18.0 15.1 13.9 77 2.3 E 22 33 12 18 1021.5 1021.1 0.0
21/06:00pm 18.7 16.1 13.8 73 2.8 ESE 20 32 11 17 1021.2 1020.8 0.0
21/05:30pm 19.0 16.3 13.4 70 3.2 ESE 20 33 11 18 1020.8 1020.4 0.0
21/05:00pm 19.8 17.1 13.5 67 3.6 ESE 20 30 11 16 1020.7 1020.3 0.0
21/04:30pm 20.0 17.4 13.7 67 3.6 ESE 20 33 11 18 1020.7 1020.3 0.0
21/04:00pm 20.8 17.6 13.0 61 4.4 ESE 22 39 12 21 1020.8 1020.4 0.0
21/03:30pm 22.4 18.8 13.2 56 5.3 SE 24 33 13 18 1020.8 1020.4 0.0
21/03:00pm 20.5 17.0 13.5 64 4.0 ESE 24 35 13 19 1020.9 1020.5 0.0
21/02:30pm 21.4 17.9 13.3 60 4.7 SE 24 35 13 19 1021.0 1020.6 0.0
21/02:00pm 22.4 19.1 12.9 55 5.4 SE 22 33 12 18 1021.2 1020.8 0.0
21/01:30pm 22.1 18.8 12.9 56 5.3 SE 22 33 12 18 1021.4 1021.0 0.0
21/01:00pm 22.4 18.8 13.2 56 5.3 SE 24 37 13 20 1021.7 1021.3 0.0
21/12:30pm 23.1 19.3 12.4 51 6.1 SE 24 33 13 18 1022.0 1021.6 0.0
21/12:00pm 23.1 19.6 12.1 50 6.2 SE 22 35 12 19 1022.1 1021.7 0.0
21/11:30am 23.2 19.6 11.9 49 6.4 SE 22 33 12 18 1022.3 1021.9 0.0
21/11:00am 23.3 19.7 11.7 48 6.5 SE 22 33 12 18 1022.6 1022.2 0.0
21/10:30am 22.4 19.4 12.4 53 5.7 SE 20 30 11 16 1023.0 1022.7 0.0
21/10:00am 22.0 19.1 12.3 54 5.5 ESE 19 30 10 16 1023.2 1022.9 0.0
21/09:30am 21.7 18.8 12.8 57 5.1 SE 20 35 11 19 1023.4 1023.1 0.0
21/09:00am 21.4 18.0 13.6 61 4.5 SE 24 35 13 19 1023.3 1023.0 0.0
21/08:30am 18.7 17.1 13.8 73 2.8 SE 15 22 8 12 1023.4 1023.1 0.0
21/08:00am 19.8 17.1 11.6 59 4.5 ESE 17 24 9 13 1023.1 1022.8 0.0
21/07:30am 19.2 17.0 12.2 64 3.9 ESE 15 26 8 14 1023.1 1022.8 0.0
21/07:00am 18.8 15.9 10.9 60 4.3 E 17 28 9 15 1023.1 1022.8 0.0
21/06:30am 18.6 15.6 12.1 66 3.6 ESE 19 30 10 16 1022.7 1022.4 0.0
21/06:00am 18.2 15.3 12.4 69 3.2 SE 19 30 10 16 1022.2 1021.8 0.0
21/05:30am 17.4 15.2 13.3 77 2.3 ESE 17 30 9 16 1021.8 1021.4 0.0
21/05:00am 18.1 15.3 12.5 70 3.1 ESE 19 28 10 15 1021.3 1020.9 0.0
21/04:30am 18.2 15.7 12.4 69 3.2 ESE 17 24 9 13 1021.0 1020.6 0.0
21/04:00am 18.1 14.8 9.5 57 4.5 ESE 17 28 9 15 1020.7 1020.3 0.0
21/03:30am 18.2 15.5 11.7 66 3.6 ESE 17 26 9 14 1020.5 1020.1 0.0
21/03:00am 18.1 16.3 13.4 74 2.7 ESE 15 19 8 10 1020.3 1019.9 0.0
21/02:30am 17.5 15.5 12.8 74 2.6 SE 15 28 8 15 1020.3 1019.9 0.0
21/02:00am 17.6 15.7 13.1 75 2.5 SE 15 22 8 12 1020.3 1019.9 0.0
21/01:30am 18.0 15.8 13.3 74 2.7 SE 17 26 9 14 1020.4 1020.0 0.0
21/01:00am 17.9 15.1 11.5 66 3.5 SE 17 26 9 14 1020.4 1020.0 0.0
21/12:30am 18.4 16.0 12.6 69 3.3 SE 17 26 9 14 1020.6 1020.2 0.0
21/12:00am 18.3 15.7 12.1 67 3.4 SE 17 24 9 13 1021.0 1020.6 0.0
 
Date/Time
WST
Temp
°C
App
Temp
°C
Dew
Point
°C
Rel
Hum
%
Delta-T
°C
Wind Press
QNH
hPa
Press
MSL
hPa
Rain since
9am
mm
Dir  Spd
km/h
Gust
km/h
Spd
kts
Gust
kts
20/11:30pm 18.3 16.2 12.3 68 3.3 SE 15 26 8 14 1021.2 1020.8 0.0
20/11:00pm 18.0 15.5 12.2 69 3.2 ESE 17 24 9 13 1021.4 1021.0 0.0
20/10:30pm 18.0 15.8 12.0 68 3.3 ESE 15 26 8 14 1021.6 1021.2 0.0
20/10:00pm 18.1 15.1 11.9 67 3.4 ESE 19 30 10 16 1021.8 1021.4 0.0
20/09:30pm 18.2 15.0 12.0 67 3.4 ESE 20 32 11 17 1021.8 1021.4 0.0
20/09:00pm 18.3 15.7 12.1 67 3.4 ESE 17 30 9 16 1021.8 1021.4 0.0
20/08:30pm 18.5 15.3 12.0 66 3.6 ESE 20 32 11 17 1021.7 1021.3 0.0
20/08:00pm 18.8 16.0 12.5 67 3.5 SE 19 30 10 16 1021.4 1021.0 0.0
20/07:30pm 19.1 16.3 12.6 66 3.7 ESE 19 30 10 16 1021.0 1020.6 0.0
20/07:00pm 19.1 16.1 12.6 66 3.6 SE 20 33 11 18 1021.0 1020.6 0.0
20/06:30pm 19.0 16.1 13.0 68 3.4 SE 20 37 11 20 1020.6 1020.2 0.0
20/06:00pm 19.6 17.0 12.1 62 4.2 SE 17 28 9 15 1020.3 1019.9 0.0
20/05:30pm 19.8 16.9 12.3 62 4.2 SE 19 26 10 14 1020.1 1019.7 0.0
20/05:00pm 20.7 17.4 12.7 60 4.5 SE 22 35 12 19 1019.7 1019.3 0.0
20/04:30pm 20.8 18.1 13.0 61 4.5 SE 19 30 10 16 1019.4 1019.0 0.0
20/04:00pm 21.3 17.8 12.2 56 5.1 SE 22 32 12 17 1019.3 1018.9 0.0
20/03:30pm 21.8 18.7 11.5 52 5.8 SE 19 32 10 17 1019.2 1018.8 0.0
20/03:00pm 22.1 17.9 11.2 50 6.1 SE 24 35 13 19 1018.8 1018.5 0.0
20/02:30pm 23.7 19.4 10.7 44 7.2 SE 24 32 13 17 1018.9 1018.6 0.0
20/02:00pm 23.6 19.8 11.0 45 7.0 SE 22 33 12 18 1019.2 1018.8 0.0
20/01:30pm 22.7 18.9 11.1 48 6.5 SE 22 33 12 18 1019.2 1018.8 0.0
20/01:00pm 23.6 20.1 12.3 49 6.4 SE 22 32 12 17 1019.2 1018.8 0.0
20/12:30pm 22.7 19.2 12.3 52 5.9 SE 22 35 12 19 1019.1 1018.7 0.0
20/12:00pm 23.8 20.7 12.1 48 6.7 SE 20 32 11 17 1019.3 1018.9 0.0
20/11:30am 23.0 20.0 12.0 50 6.2 SE 19 30 10 16 1019.6 1019.2 0.0
20/11:00am 23.3 20.3 12.0 49 6.4 ESE 19 30 10 16 1019.8 1019.4 0.0
20/10:30am 23.4 20.9 12.4 50 6.3 SE 17 28 9 15 1020.1 1019.7 0.0
20/10:00am 22.9 20.1 11.3 48 6.5 ESE 17 30 9 16 1020.1 1019.7 0.0
20/09:30am 22.3 18.9 11.4 50 6.1 SE 20 30 11 16 1020.3 1019.9 0.0
20/09:00am 21.2 17.9 11.5 54 5.4 ESE 20 28 11 15 1020.1 1019.7 0.0
20/08:30am 21.9 18.7 11.9 53 5.6 ESE 20 28 11 15 1020.0 1019.6 0.0
20/08:00am 21.4 18.5 12.3 56 5.1 ESE 19 28 10 15 1020.1 1019.7 0.0
20/07:30am 20.0 18.3 12.5 62 4.2 ESE 13 19 7 10 1019.9 1019.5 0.0
20/07:00am 20.6 18.3 11.8 57 4.9 ESE 15 22 8 12 1019.7 1019.3 0.0
20/06:30am 20.1 18.3 12.1 60 4.5 E 13 19 7 10 1019.5 1019.1 0.0
20/06:00am 18.8 18.1 12.1 65 3.7 E 7 13 4 7 1019.1 1018.7 0.0
20/05:30am 18.2 16.7 12.0 67 3.4 E 11 17 6 9 1018.2 1017.9 0.0
20/05:00am 17.8 16.4 12.3 70 3.1 E 11 15 6 8 1017.9 1017.6 0.0
20/04:30am 17.9 16.6 12.4 70 3.1 E 11 17 6 9 1017.5 1017.2 0.0
20/04:00am 17.9 16.5 12.1 69 3.2 E 11 17 6 9 1017.3 1017.0 0.0
20/03:30am 18.0 16.2 12.2 69 3.2 E 13 19 7 10 1017.2 1016.9 0.0
20/03:00am 18.1 15.9 12.1 68 3.3 ESE 15 22 8 12 1016.9 1016.6 0.0
20/02:30am 18.1 15.5 12.1 68 3.3 ESE 17 26 9 14 1016.8 1016.5 0.0
20/02:00am 18.2 15.7 12.2 68 3.3 ESE 17 24 9 13 1017.1 1016.8 0.0
20/01:30am 18.4 15.9 12.2 67 3.4 ESE 17 28 9 15 1016.8 1016.5 0.0
20/01:00am 18.4 15.5 12.4 68 3.3 ESE 19 30 10 16 1016.8 1016.5 0.0
20/12:30am 18.3 15.2 12.3 68 3.3 ESE 20 32 11 17 1016.9 1016.6 0.0
20/12:00am 18.5 15.7 12.5 68 3.4 ESE 19 28 10 15 1017.5 1017.2 0.0
 
Date/Time
WST
Temp
°C
App
Temp
°C
Dew
Point
°C
Rel
Hum
%
Delta-T
°C
Wind Press
QNH
hPa
Press
MSL
hPa
Rain since
9am
mm
Dir  Spd
km/h
Gust
km/h
Spd
kts
Gust
kts
19/11:30pm 18.5 16.1 12.5 68 3.4 ESE 17 28 9 15 1017.9 1017.6 0.0
19/11:00pm 18.5 15.0 12.3 67 3.5 ESE 22 33 12 18 1017.9 1017.6 0.0
19/10:30pm 18.5 15.7 11.3 63 3.9 ESE 17 33 9 18 1018.6 1018.3 0.0
19/10:00pm 18.6 15.5 10.4 59 4.4 ESE 17 28 9 15 1018.9 1018.6 0.0
19/09:30pm 18.7 15.2 10.8 60 4.3 SE 20 32 11 17 1018.8 1018.5 0.0
19/09:00pm 18.8 15.6 11.1 61 4.2 ESE 19 28 10 15 1019.2 1018.8 0.0
19/08:30pm 18.8 15.5 10.9 60 4.3 ESE 19 30 10 16 1019.4 1019.0 0.0
19/08:00pm 18.7 15.7 11.8 64 3.8 ESE 19 28 10 15 1019.2 1018.8 0.0
19/07:30pm 18.6 16.1 11.2 62 4.0 ESE 15 24 8 13 1018.9 1018.6 0.0
19/07:00pm 18.7 15.4 11.0 61 4.2 ESE 19 30 10 16 1018.6 1018.3 0.0
19/06:30pm 18.9 15.9 10.7 59 4.4 ESE 17 28 9 15 1018.4 1018.1 0.0

Other formats

Comma delimited format used in spreadsheet applications
http://www.bom.gov.au/fwo/IDW60801/IDW60801.94647.axf

JavaScript Object Notation format (JSON) in row-major order
http://www.bom.gov.au/fwo/IDW60801/IDW60801.94647.json

Data quality

Most of these data are generated automatically and are frequently updated. Quality checks on data are not normally performed. It is possible for incorrect values to appear. Refer to information at About Latest Weather Observations and please check the disclaimer before using these data.